sensor_id;sensor_type;location;lat;lon;timestamp;temperature;humidity
2967;DHT22;1493;51.496;7.210;2023-07-29T00:01:51;20.00;99.90
2967;DHT22;1493;51.496;7.210;2023-07-29T00:04:20;19.90;99.90
2967;DHT22;1493;51.496;7.210;2023-07-29T00:06:47;19.90;99.90
2967;DHT22;1493;51.496;7.210;2023-07-29T00:09:13;19.90;99.90
2967;DHT22;1493;51.496;7.210;2023-07-29T00:11:40;19.80;99.90
2967;DHT22;1493;51.496;7.210;2023-07-29T00:14:07;19.80;99.90
2967;DHT22;1493;51.496;7.210;2023-07-29T00:16:35;19.80;99.90
2967;DHT22;1493;51.496;7.210;2023-07-29T00:19:02;19.80;99.90
2967;DHT22;1493;51.496;7.210;2023-07-29T00:21:29;19.80;99.90
2967;DHT22;1493;51.496;7.210;2023-07-29T00:23:56;19.70;99.90
2967;DHT22;1493;51.496;7.210;2023-07-29T00:26:24;19.70;99.90
2967;DHT22;1493;51.496;7.210;2023-07-29T00:28:54;19.70;99.90
2967;DHT22;1493;51.496;7.210;2023-07-29T00:31:21;19.70;99.90
2967;DHT22;1493;51.496;7.210;2023-07-29T00:33:49;19.70;99.90
2967;DHT22;1493;51.496;7.210;2023-07-29T00:36:16;19.70;99.90
2967;DHT22;1493;51.496;7.210;2023-07-29T00:38:42;19.70;99.90
2967;DHT22;1493;51.496;7.210;2023-07-29T00:41:10;19.70;99.90
2967;DHT22;1493;51.496;7.210;2023-07-29T00:43:38;19.70;99.90
2967;DHT22;1493;51.496;7.210;2023-07-29T00:46:06;19.70;99.90
2967;DHT22;1493;51.496;7.210;2023-07-29T00:48:33;19.80;99.90
2967;DHT22;1493;51.496;7.210;2023-07-29T00:51:01;19.80;99.90
2967;DHT22;1493;51.496;7.210;2023-07-29T00:53:28;19.80;99.90
2967;DHT22;1493;51.496;7.210;2023-07-29T00:55:55;19.80;99.90
2967;DHT22;1493;51.496;7.210;2023-07-29T00:58:22;19.80;99.90
2967;DHT22;1493;51.496;7.210;2023-07-29T01:00:50;19.80;99.90
2967;DHT22;1493;51.496;7.210;2023-07-29T01:03:17;19.80;99.90
2967;DHT22;1493;51.496;7.210;2023-07-29T01:05:54;19.80;99.90
2967;DHT22;1493;51.496;7.210;2023-07-29T01:08:31;19.80;99.90
2967;DHT22;1493;51.496;7.210;2023-07-29T01:11:08;19.80;99.90
2967;DHT22;1493;51.496;7.210;2023-07-29T01:13:46;19.80;99.90
2967;DHT22;1493;51.496;7.210;2023-07-29T01:16:19;19.80;99.90
2967;DHT22;1493;51.496;7.210;2023-07-29T01:18:48;19.80;99.90
2967;DHT22;1493;51.496;7.210;2023-07-29T01:21:17;19.80;99.90
2967;DHT22;1493;51.496;7.210;2023-07-29T01:23:45;19.80;99.90
2967;DHT22;1493;51.496;7.210;2023-07-29T01:26:12;19.80;99.90
2967;DHT22;1493;51.496;7.210;2023-07-29T01:28:39;19.70;99.90
2967;DHT22;1493;51.496;7.210;2023-07-29T01:31:10;19.70;99.90
2967;DHT22;1493;51.496;7.210;2023-07-29T01:33:42;19.70;99.90
2967;DHT22;1493;51.496;7.210;2023-07-29T01:36:13;19.70;99.90
2967;DHT22;1493;51.496;7.210;2023-07-29T01:38:42;19.70;99.90
2967;DHT22;1493;51.496;7.210;2023-07-29T01:41:11;19.70;99.90
2967;DHT22;1493;51.496;7.210;2023-07-29T01:43:39;19.60;99.90
2967;DHT22;1493;51.496;7.210;2023-07-29T01:46:09;19.60;99.90
2967;DHT22;1493;51.496;7.210;2023-07-29T01:48:37;19.60;99.90
2967;DHT22;1493;51.496;7.210;2023-07-29T01:51:04;19.60;99.90
2967;DHT22;1493;51.496;7.210;2023-07-29T01:53:31;19.70;99.90
2967;DHT22;1493;51.496;7.210;2023-07-29T01:55:58;19.60;99.90
2967;DHT22;1493;51.496;7.210;2023-07-29T01:58:26;19.60;99.90
2967;DHT22;1493;51.496;7.210;2023-07-29T02:00:53;19.60;99.90
2967;DHT22;1493;51.496;7.210;2023-07-29T02:03:20;19.60;99.90
2967;DHT22;1493;51.496;7.210;2023-07-29T02:05:46;19.70;99.90
2967;DHT22;1493;51.496;7.210;2023-07-29T02:08:13;19.70;99.90
2967;DHT22;1493;51.496;7.210;2023-07-29T02:10:40;19.70;99.90
2967;DHT22;1493;51.496;7.210;2023-07-29T02:13:10;19.70;99.90
2967;DHT22;1493;51.496;7.210;2023-07-29T02:15:38;19.70;99.90
2967;DHT22;1493;51.496;7.210;2023-07-29T02:18:05;19.70;99.90
2967;DHT22;1493;51.496;7.210;2023-07-29T02:20:32;19.70;99.90
2967;DHT22;1493;51.496;7.210;2023-07-29T02:22:59;19.80;99.90
2967;DHT22;1493;51.496;7.210;2023-07-29T02:25:26;19.80;99.90
2967;DHT22;1493;51.496;7.210;2023-07-29T02:27:53;19.80;99.90
2967;DHT22;1493;51.496;7.210;2023-07-29T02:30:20;19.80;99.90
2967;DHT22;1493;51.496;7.210;2023-07-29T02:32:48;19.80;99.90
2967;DHT22;1493;51.496;7.210;2023-07-29T02:35:15;19.80;99.90
2967;DHT22;1493;51.496;7.210;2023-07-29T02:37:42;19.80;99.90
2967;DHT22;1493;51.496;7.210;2023-07-29T02:40:10;19.80;99.90
2967;DHT22;1493;51.496;7.210;2023-07-29T02:42:37;19.80;99.90
2967;DHT22;1493;51.496;7.210;2023-07-29T02:45:04;19.80;99.90
2967;DHT22;1493;51.496;7.210;2023-07-29T02:47:35;19.80;99.90
2967;DHT22;1493;51.496;7.210;2023-07-29T02:50:03;19.80;99.90
2967;DHT22;1493;51.496;7.210;2023-07-29T02:52:31;19.80;99.90
2967;DHT22;1493;51.496;7.210;2023-07-29T02:54:57;19.90;99.90
2967;DHT22;1493;51.496;7.210;2023-07-29T02:57:24;19.80;99.90
2967;DHT22;1493;51.496;7.210;2023-07-29T02:59:51;19.80;99.90
2967;DHT22;1493;51.496;7.210;2023-07-29T03:02:18;19.80;99.90
2967;DHT22;1493;51.496;7.210;2023-07-29T03:04:45;19.80;99.90
2967;DHT22;1493;51.496;7.210;2023-07-29T03:07:13;19.80;99.90
2967;DHT22;1493;51.496;7.210;2023-07-29T03:09:40;19.80;99.90
2967;DHT22;1493;51.496;7.210;2023-07-29T03:12:07;19.80;99.90
2967;DHT22;1493;51.496;7.210;2023-07-29T03:14:34;19.80;99.90
2967;DHT22;1493;51.496;7.210;2023-07-29T03:17:02;19.80;99.90
2967;DHT22;1493;51.496;7.210;2023-07-29T03:19:29;19.80;99.90
2967;DHT22;1493;51.496;7.210;2023-07-29T03:21:56;19.80;99.90
2967;DHT22;1493;51.496;7.210;2023-07-29T03:24:24;19.80;99.90
2967;DHT22;1493;51.496;7.210;2023-07-29T03:26:51;19.80;99.90
2967;DHT22;1493;51.496;7.210;2023-07-29T03:29:18;19.80;99.90
2967;DHT22;1493;51.496;7.210;2023-07-29T03:31:45;19.80;99.90
2967;DHT22;1493;51.496;7.210;2023-07-29T03:34:12;19.80;99.90
2967;DHT22;1493;51.496;7.210;2023-07-29T03:36:38;19.90;99.90
2967;DHT22;1493;51.496;7.210;2023-07-29T03:39:06;19.90;99.90
2967;DHT22;1493;51.496;7.210;2023-07-29T03:41:34;19.90;99.90
2967;DHT22;1493;51.496;7.210;2023-07-29T03:44:01;19.90;99.90
2967;DHT22;1493;51.496;7.210;2023-07-29T03:46:28;19.90;99.90
2967;DHT22;1493;51.496;7.210;2023-07-29T03:48:54;19.90;99.90
2967;DHT22;1493;51.496;7.210;2023-07-29T03:51:21;19.90;99.90
2967;DHT22;1493;51.496;7.210;2023-07-29T03:53:50;19.90;99.90
2967;DHT22;1493;51.496;7.210;2023-07-29T03:56:16;19.90;99.90
2967;DHT22;1493;51.496;7.210;2023-07-29T03:58:45;19.90;99.90
2967;DHT22;1493;51.496;7.210;2023-07-29T04:01:13;19.90;99.90
2967;DHT22;1493;51.496;7.210;2023-07-29T04:03:40;19.90;99.90
2967;DHT22;1493;51.496;7.210;2023-07-29T04:06:07;19.80;99.90
2967;DHT22;1493;51.496;7.210;2023-07-29T04:08:34;19.90;99.90
2967;DHT22;1493;51.496;7.210;2023-07-29T04:11:01;19.90;99.90
2967;DHT22;1493;51.496;7.210;2023-07-29T04:13:27;19.90;99.90
2967;DHT22;1493;51.496;7.210;2023-07-29T04:15:56;19.90;99.90
2967;DHT22;1493;51.496;7.210;2023-07-29T04:18:22;19.90;99.90
2967;DHT22;1493;51.496;7.210;2023-07-29T04:20:49;19.90;99.90
2967;DHT22;1493;51.496;7.210;2023-07-29T04:23:16;19.90;99.90
2967;DHT22;1493;51.496;7.210;2023-07-29T04:25:43;19.90;99.90
2967;DHT22;1493;51.496;7.210;2023-07-29T04:28:09;19.90;99.90
2967;DHT22;1493;51.496;7.210;2023-07-29T04:30:36;19.90;99.90
2967;DHT22;1493;51.496;7.210;2023-07-29T04:33:04;19.90;99.90
2967;DHT22;1493;51.496;7.210;2023-07-29T04:35:33;19.90;99.90
2967;DHT22;1493;51.496;7.210;2023-07-29T04:38:00;20.00;99.90
2967;DHT22;1493;51.496;7.210;2023-07-29T04:40:27;20.00;99.90
2967;DHT22;1493;51.496;7.210;2023-07-29T04:42:54;20.00;99.90
2967;DHT22;1493;51.496;7.210;2023-07-29T04:45:21;20.00;99.90
2967;DHT22;1493;51.496;7.210;2023-07-29T04:47:49;20.00;99.90
2967;DHT22;1493;51.496;7.210;2023-07-29T04:50:17;20.00;99.90
2967;DHT22;1493;51.496;7.210;2023-07-29T04:52:44;19.80;99.90
2967;DHT22;1493;51.496;7.210;2023-07-29T04:55:11;19.80;99.90
2967;DHT22;1493;51.496;7.210;2023-07-29T04:57:37;19.90;99.90
2967;DHT22;1493;51.496;7.210;2023-07-29T05:00:06;19.90;99.90
2967;DHT22;1493;51.496;7.210;2023-07-29T05:02:33;19.80;99.90
2967;DHT22;1493;51.496;7.210;2023-07-29T05:05:00;19.90;99.90
2967;DHT22;1493;51.496;7.210;2023-07-29T05:07:29;19.80;99.90
2967;DHT22;1493;51.496;7.210;2023-07-29T05:09:55;19.80;99.90
2967;DHT22;1493;51.496;7.210;2023-07-29T05:12:22;19.80;99.90
2967;DHT22;1493;51.496;7.210;2023-07-29T05:14:49;19.80;99.90
2967;DHT22;1493;51.496;7.210;2023-07-29T05:17:16;19.80;99.90
2967;DHT22;1493;51.496;7.210;2023-07-29T05:19:42;19.80;99.90
2967;DHT22;1493;51.496;7.210;2023-07-29T05:22:10;19.80;99.90
2967;DHT22;1493;51.496;7.210;2023-07-29T05:24:41;19.80;99.90
2967;DHT22;1493;51.496;7.210;2023-07-29T05:27:07;19.80;99.90
2967;DHT22;1493;51.496;7.210;2023-07-29T05:29:34;19.80;99.90
2967;DHT22;1493;51.496;7.210;2023-07-29T05:32:03;19.90;99.90
2967;DHT22;1493;51.496;7.210;2023-07-29T05:34:30;19.90;99.90
2967;DHT22;1493;51.496;7.210;2023-07-29T05:36:56;19.90;99.90
2967;DHT22;1493;51.496;7.210;2023-07-29T05:39:23;20.00;99.90
2967;DHT22;1493;51.496;7.210;2023-07-29T05:41:52;20.00;99.90
2967;DHT22;1493;51.496;7.210;2023-07-29T05:44:18;20.00;99.90
2967;DHT22;1493;51.496;7.210;2023-07-29T05:46:45;20.00;99.90
2967;DHT22;1493;51.496;7.210;2023-07-29T05:49:13;20.00;99.90
2967;DHT22;1493;51.496;7.210;2023-07-29T05:51:44;20.00;99.90
2967;DHT22;1493;51.496;7.210;2023-07-29T05:54:10;20.00;99.90
2967;DHT22;1493;51.496;7.210;2023-07-29T05:56:37;20.00;99.90
2967;DHT22;1493;51.496;7.210;2023-07-29T05:59:05;20.00;99.90
2967;DHT22;1493;51.496;7.210;2023-07-29T06:01:32;20.00;99.90
2967;DHT22;1493;51.496;7.210;2023-07-29T06:04:00;20.00;99.90
2967;DHT22;1493;51.496;7.210;2023-07-29T06:06:27;20.00;99.90
2967;DHT22;1493;51.496;7.210;2023-07-29T06:08:54;19.90;99.90
2967;DHT22;1493;51.496;7.210;2023-07-29T06:11:21;20.00;99.90
2967;DHT22;1493;51.496;7.210;2023-07-29T06:13:48;19.90;99.90
2967;DHT22;1493;51.496;7.210;2023-07-29T06:16:16;19.90;99.90
2967;DHT22;1493;51.496;7.210;2023-07-29T06:18:43;19.90;99.90
2967;DHT22;1493;51.496;7.210;2023-07-29T06:21:09;19.90;99.90
2967;DHT22;1493;51.496;7.210;2023-07-29T06:23:42;19.80;99.90
2967;DHT22;1493;51.496;7.210;2023-07-29T06:26:09;19.80;99.90
2967;DHT22;1493;51.496;7.210;2023-07-29T06:28:35;19.70;99.90
2967;DHT22;1493;51.496;7.210;2023-07-29T06:31:02;19.80;99.90
2967;DHT22;1493;51.496;7.210;2023-07-29T06:33:30;19.80;99.90
2967;DHT22;1493;51.496;7.210;2023-07-29T06:35:57;19.80;99.90
2967;DHT22;1493;51.496;7.210;2023-07-29T06:38:24;19.70;99.90
2967;DHT22;1493;51.496;7.210;2023-07-29T06:40:51;19.70;99.90
2967;DHT22;1493;51.496;7.210;2023-07-29T06:43:18;19.70;99.90
2967;DHT22;1493;51.496;7.210;2023-07-29T06:45:45;19.70;99.90
2967;DHT22;1493;51.496;7.210;2023-07-29T06:48:11;19.70;99.90
2967;DHT22;1493;51.496;7.210;2023-07-29T06:50:39;19.70;99.90
2967;DHT22;1493;51.496;7.210;2023-07-29T06:53:06;19.60;99.90
2967;DHT22;1493;51.496;7.210;2023-07-29T06:55:35;19.70;99.90
2967;DHT22;1493;51.496;7.210;2023-07-29T06:58:02;19.70;99.90
2967;DHT22;1493;51.496;7.210;2023-07-29T07:00:29;19.70;99.90
2967;DHT22;1493;51.496;7.210;2023-07-29T07:02:56;19.70;99.90
2967;DHT22;1493;51.496;7.210;2023-07-29T07:05:23;19.70;99.90
2967;DHT22;1493;51.496;7.210;2023-07-29T07:07:51;19.70;99.90
2967;DHT22;1493;51.496;7.210;2023-07-29T07:10:18;19.60;99.90
2967;DHT22;1493;51.496;7.210;2023-07-29T07:12:45;19.60;99.90
2967;DHT22;1493;51.496;7.210;2023-07-29T07:15:12;19.60;99.90
2967;DHT22;1493;51.496;7.210;2023-07-29T07:17:38;19.50;99.90
2967;DHT22;1493;51.496;7.210;2023-07-29T07:20:07;19.50;99.90
2967;DHT22;1493;51.496;7.210;2023-07-29T07:22:33;19.40;99.90
2967;DHT22;1493;51.496;7.210;2023-07-29T07:25:02;19.40;99.90
2967;DHT22;1493;51.496;7.210;2023-07-29T07:27:29;19.40;99.90
2967;DHT22;1493;51.496;7.210;2023-07-29T07:29:55;19.30;99.90
2967;DHT22;1493;51.496;7.210;2023-07-29T07:32:22;19.40;99.90
2967;DHT22;1493;51.496;7.210;2023-07-29T07:34:49;19.40;99.90
2967;DHT22;1493;51.496;7.210;2023-07-29T07:37:16;19.50;99.90
2967;DHT22;1493;51.496;7.210;2023-07-29T07:39:43;19.60;99.90
2967;DHT22;1493;51.496;7.210;2023-07-29T07:42:11;19.70;99.90
2967;DHT22;1493;51.496;7.210;2023-07-29T07:44:38;19.70;99.90
2967;DHT22;1493;51.496;7.210;2023-07-29T07:47:07;19.80;99.90
2967;DHT22;1493;51.496;7.210;2023-07-29T07:49:33;19.70;99.90
2967;DHT22;1493;51.496;7.210;2023-07-29T07:52:00;19.70;99.90
2967;DHT22;1493;51.496;7.210;2023-07-29T07:54:27;20.00;99.90
2967;DHT22;1493;51.496;7.210;2023-07-29T07:56:54;20.00;99.90
2967;DHT22;1493;51.496;7.210;2023-07-29T07:59:22;20.20;99.90
2967;DHT22;1493;51.496;7.210;2023-07-29T08:01:49;20.30;99.90
2967;DHT22;1493;51.496;7.210;2023-07-29T08:04:15;20.40;99.90
2967;DHT22;1493;51.496;7.210;2023-07-29T08:06:42;20.50;99.90
2967;DHT22;1493;51.496;7.210;2023-07-29T08:09:09;20.50;99.90
2967;DHT22;1493;51.496;7.210;2023-07-29T08:11:36;20.60;99.90
2967;DHT22;1493;51.496;7.210;2023-07-29T08:14:03;20.70;99.90
2967;DHT22;1493;51.496;7.210;2023-07-29T08:16:31;20.60;99.90
2967;DHT22;1493;51.496;7.210;2023-07-29T08:18:58;20.60;99.90
2967;DHT22;1493;51.496;7.210;2023-07-29T08:21:26;20.60;99.90
2967;DHT22;1493;51.496;7.210;2023-07-29T08:23:52;20.70;99.90
2967;DHT22;1493;51.496;7.210;2023-07-29T08:26:19;20.80;99.90
2967;DHT22;1493;51.496;7.210;2023-07-29T08:28:48;20.70;99.90
2967;DHT22;1493;51.496;7.210;2023-07-29T08:31:15;20.70;99.90
2967;DHT22;1493;51.496;7.210;2023-07-29T08:33:43;20.70;99.90
2967;DHT22;1493;51.496;7.210;2023-07-29T08:36:10;20.70;99.90
2967;DHT22;1493;51.496;7.210;2023-07-29T08:38:36;20.60;99.90
2967;DHT22;1493;51.496;7.210;2023-07-29T08:41:10;20.70;99.90
2967;DHT22;1493;51.496;7.210;2023-07-29T08:43:44;20.80;99.90
2967;DHT22;1493;51.496;7.210;2023-07-29T08:46:15;20.60;99.90
2967;DHT22;1493;51.496;7.210;2023-07-29T08:48:43;20.70;90.70
2967;DHT22;1493;51.496;7.210;2023-07-29T08:51:11;20.90;99.90
2967;DHT22;1493;51.496;7.210;2023-07-29T08:53:38;20.90;99.90
2967;DHT22;1493;51.496;7.210;2023-07-29T08:56:07;21.00;99.90
2967;DHT22;1493;51.496;7.210;2023-07-29T08:58:35;21.20;1.00
2967;DHT22;1493;51.496;7.210;2023-07-29T09:01:05;21.50;99.90
2967;DHT22;1493;51.496;7.210;2023-07-29T09:03:36;21.70;90.50
2967;DHT22;1493;51.496;7.210;2023-07-29T09:06:05;21.80;61.80
2967;DHT22;1493;51.496;7.210;2023-07-29T09:08:33;21.90;1.00
2967;DHT22;1493;51.496;7.210;2023-07-29T09:11:00;22.10;72.70
2967;DHT22;1493;51.496;7.210;2023-07-29T09:13:27;22.20;1.00
2967;DHT22;1493;51.496;7.210;2023-07-29T09:15:56;22.00;1.00
2967;DHT22;1493;51.496;7.210;2023-07-29T09:18:26;21.90;1.00
2967;DHT22;1493;51.496;7.210;2023-07-29T09:20:54;22.00;1.00
2967;DHT22;1493;51.496;7.210;2023-07-29T09:23:22;22.30;11.40
2967;DHT22;1493;51.496;7.210;2023-07-29T09:25:49;22.50;90.30
2967;DHT22;1493;51.496;7.210;2023-07-29T09:28:16;22.80;74.60
2967;DHT22;1493;51.496;7.210;2023-07-29T09:30:46;22.90;1.00
2967;DHT22;1493;51.496;7.210;2023-07-29T09:33:13;22.80;1.00
2967;DHT22;1493;51.496;7.210;2023-07-29T09:35:40;22.70;1.00
2967;DHT22;1493;51.496;7.210;2023-07-29T09:38:07;22.60;1.00
2967;DHT22;1493;51.496;7.210;2023-07-29T09:40:36;22.60;1.00
2967;DHT22;1493;51.496;7.210;2023-07-29T09:43:04;22.80;8.00
2967;DHT22;1493;51.496;7.210;2023-07-29T09:45:33;22.80;1.00
2967;DHT22;1493;51.496;7.210;2023-07-29T09:48:00;23.00;1.00
2967;DHT22;1493;51.496;7.210;2023-07-29T09:50:28;22.90;1.00
2967;DHT22;1493;51.496;7.210;2023-07-29T09:52:56;22.90;1.00
2967;DHT22;1493;51.496;7.210;2023-07-29T09:55:25;22.90;99.90
2967;DHT22;1493;51.496;7.210;2023-07-29T09:57:56;23.00;1.00
2967;DHT22;1493;51.496;7.210;2023-07-29T10:00:25;22.80;99.90
2967;DHT22;1493;51.496;7.210;2023-07-29T10:02:53;22.70;1.00
2967;DHT22;1493;51.496;7.210;2023-07-29T10:05:22;22.50;1.00
2967;DHT22;1493;51.496;7.210;2023-07-29T10:07:49;22.30;1.00
2967;DHT22;1493;51.496;7.210;2023-07-29T10:10:16;22.20;1.00
2967;DHT22;1493;51.496;7.210;2023-07-29T10:12:44;22.20;1.00
2967;DHT22;1493;51.496;7.210;2023-07-29T10:15:12;22.10;1.00
2967;DHT22;1493;51.496;7.210;2023-07-29T10:17:39;22.00;1.00
2967;DHT22;1493;51.496;7.210;2023-07-29T10:20:08;22.20;1.00
2967;DHT22;1493;51.496;7.210;2023-07-29T10:22:37;22.40;97.00
2967;DHT22;1493;51.496;7.210;2023-07-29T10:25:07;22.40;1.00
2967;DHT22;1493;51.496;7.210;2023-07-29T10:27:42;22.50;1.00
2967;DHT22;1493;51.496;7.210;2023-07-29T10:30:12;22.70;1.00
2967;DHT22;1493;51.496;7.210;2023-07-29T10:32:42;23.00;1.00
2967;DHT22;1493;51.496;7.210;2023-07-29T10:35:09;23.20;1.00
2967;DHT22;1493;51.496;7.210;2023-07-29T10:37:36;23.60;1.00
2967;DHT22;1493;51.496;7.210;2023-07-29T10:40:07;24.20;8.10
2967;DHT22;1493;51.496;7.210;2023-07-29T10:42:34;24.50;1.00
2967;DHT22;1493;51.496;7.210;2023-07-29T10:45:19;24.60;1.00
2967;DHT22;1493;51.496;7.210;2023-07-29T10:47:46;24.70;99.90
2967;DHT22;1493;51.496;7.210;2023-07-29T10:50:17;24.90;1.00
2967;DHT22;1493;51.496;7.210;2023-07-29T10:52:49;25.30;1.00
2967;DHT22;1493;51.496;7.210;2023-07-29T10:55:27;25.70;99.90
2967;DHT22;1493;51.496;7.210;2023-07-29T10:58:08;25.90;1.00
2967;DHT22;1493;51.496;7.210;2023-07-29T11:00:36;26.00;1.00
2967;DHT22;1493;51.496;7.210;2023-07-29T11:03:05;25.90;1.00
2967;DHT22;1493;51.496;7.210;2023-07-29T11:05:43;25.60;1.00
2967;DHT22;1493;51.496;7.210;2023-07-29T11:08:18;25.40;99.90
2967;DHT22;1493;51.496;7.210;2023-07-29T11:10:58;25.10;99.90
2967;DHT22;1493;51.496;7.210;2023-07-29T11:13:26;24.70;99.90
2967;DHT22;1493;51.496;7.210;2023-07-29T11:15:56;24.70;99.90
2967;DHT22;1493;51.496;7.210;2023-07-29T11:18:27;25.20;65.90
2967;DHT22;1493;51.496;7.210;2023-07-29T11:20:54;25.60;1.00
2967;DHT22;1493;51.496;7.210;2023-07-29T11:23:27;25.80;99.90
2967;DHT22;1493;51.496;7.210;2023-07-29T11:25:55;26.30;99.90
2967;DHT22;1493;51.496;7.210;2023-07-29T11:28:21;26.40;72.20
2967;DHT22;1493;51.496;7.210;2023-07-29T11:30:50;26.40;1.00
2967;DHT22;1493;51.496;7.210;2023-07-29T11:33:19;26.30;1.00
2967;DHT22;1493;51.496;7.210;2023-07-29T11:35:46;26.10;99.90
2967;DHT22;1493;51.496;7.210;2023-07-29T11:38:15;26.00;99.90
2967;DHT22;1493;51.496;7.210;2023-07-29T11:40:41;25.80;99.90
2967;DHT22;1493;51.496;7.210;2023-07-29T11:43:08;25.60;1.00
2967;DHT22;1493;51.496;7.210;2023-07-29T11:45:35;25.80;1.00
2967;DHT22;1493;51.496;7.210;2023-07-29T11:48:02;25.90;99.90
2967;DHT22;1493;51.496;7.210;2023-07-29T11:50:30;26.20;99.90
2967;DHT22;1493;51.496;7.210;2023-07-29T11:52:58;26.10;99.90
2967;DHT22;1493;51.496;7.210;2023-07-29T11:55:25;25.90;99.90
2967;DHT22;1493;51.496;7.210;2023-07-29T11:57:52;25.70;1.00
2967;DHT22;1493;51.496;7.210;2023-07-29T12:00:20;25.80;99.90
2967;DHT22;1493;51.496;7.210;2023-07-29T12:02:49;26.20;1.00
2967;DHT22;1493;51.496;7.210;2023-07-29T12:05:16;26.60;1.00
2967;DHT22;1493;51.496;7.210;2023-07-29T12:07:48;26.40;99.90
2967;DHT22;1493;51.496;7.210;2023-07-29T12:10:19;26.00;99.90
2967;DHT22;1493;51.496;7.210;2023-07-29T12:12:48;25.70;99.90
2967;DHT22;1493;51.496;7.210;2023-07-29T12:15:23;26.10;99.90
2967;DHT22;1493;51.496;7.210;2023-07-29T12:17:53;26.40;99.90
2967;DHT22;1493;51.496;7.210;2023-07-29T12:20:20;26.70;99.90
2967;DHT22;1493;51.496;7.210;2023-07-29T12:22:53;27.20;99.90
2967;DHT22;1493;51.496;7.210;2023-07-29T12:25:20;27.50;1.00
2967;DHT22;1493;51.496;7.210;2023-07-29T12:27:47;27.80;1.00
2967;DHT22;1493;51.496;7.210;2023-07-29T12:30:14;27.90;99.90
2967;DHT22;1493;51.496;7.210;2023-07-29T12:32:45;27.50;99.90
2967;DHT22;1493;51.496;7.210;2023-07-29T12:35:13;27.50;1.00
2967;DHT22;1493;51.496;7.210;2023-07-29T12:37:40;27.10;34.60
2967;DHT22;1493;51.496;7.210;2023-07-29T12:40:22;26.90;99.90
2967;DHT22;1493;51.496;7.210;2023-07-29T12:42:49;26.70;99.90
2967;DHT22;1493;51.496;7.210;2023-07-29T12:45:16;26.60;99.90
2967;DHT22;1493;51.496;7.210;2023-07-29T12:47:44;27.00;99.90
2967;DHT22;1493;51.496;7.210;2023-07-29T12:50:11;27.00;99.90
2967;DHT22;1493;51.496;7.210;2023-07-29T12:52:37;27.50;99.90
2967;DHT22;1493;51.496;7.210;2023-07-29T12:55:05;28.00;1.00
2967;DHT22;1493;51.496;7.210;2023-07-29T12:57:35;28.10;7.10
2967;DHT22;1493;51.496;7.210;2023-07-29T13:00:03;28.60;99.90
2967;DHT22;1493;51.496;7.210;2023-07-29T13:02:30;28.70;20.80
2967;DHT22;1493;51.496;7.210;2023-07-29T13:04:57;28.40;1.00
2967;DHT22;1493;51.496;7.210;2023-07-29T13:07:26;27.80;1.00
2967;DHT22;1493;51.496;7.210;2023-07-29T13:09:53;27.20;1.00
2967;DHT22;1493;51.496;7.210;2023-07-29T13:12:22;26.60;99.90
2967;DHT22;1493;51.496;7.210;2023-07-29T13:14:50;26.20;99.90
2967;DHT22;1493;51.496;7.210;2023-07-29T13:17:17;25.90;99.90
2967;DHT22;1493;51.496;7.210;2023-07-29T13:19:44;25.70;99.90
2967;DHT22;1493;51.496;7.210;2023-07-29T13:22:11;25.80;1.00
2967;DHT22;1493;51.496;7.210;2023-07-29T13:24:41;25.80;99.90
2967;DHT22;1493;51.496;7.210;2023-07-29T13:27:11;25.80;1.00
2967;DHT22;1493;51.496;7.210;2023-07-29T13:29:39;25.60;99.90
2967;DHT22;1493;51.496;7.210;2023-07-29T13:32:08;25.60;99.90
2967;DHT22;1493;51.496;7.210;2023-07-29T13:34:36;25.50;1.00
2967;DHT22;1493;51.496;7.210;2023-07-29T13:37:06;25.50;1.00
2967;DHT22;1493;51.496;7.210;2023-07-29T13:39:36;25.40;99.90
2967;DHT22;1493;51.496;7.210;2023-07-29T13:42:07;25.30;1.00
2967;DHT22;1493;51.496;7.210;2023-07-29T13:44:34;25.10;99.90
2967;DHT22;1493;51.496;7.210;2023-07-29T13:47:05;24.90;99.90
2967;DHT22;1493;51.496;7.210;2023-07-29T13:49:34;24.50;99.90
2967;DHT22;1493;51.496;7.210;2023-07-29T13:52:01;24.50;1.00
2967;DHT22;1493;51.496;7.210;2023-07-29T13:54:28;24.30;99.90
2967;DHT22;1493;51.496;7.210;2023-07-29T13:56:55;24.10;99.90
2967;DHT22;1493;51.496;7.210;2023-07-29T13:59:22;24.00;1.00
2967;DHT22;1493;51.496;7.210;2023-07-29T14:01:49;23.80;1.00
2967;DHT22;1493;51.496;7.210;2023-07-29T14:04:18;23.60;99.90
2967;DHT22;1493;51.496;7.210;2023-07-29T14:06:49;23.50;99.90
2967;DHT22;1493;51.496;7.210;2023-07-29T14:09:16;23.40;99.90
2967;DHT22;1493;51.496;7.210;2023-07-29T14:11:47;23.20;1.00
2967;DHT22;1493;51.496;7.210;2023-07-29T14:14:15;23.00;99.90
2967;DHT22;1493;51.496;7.210;2023-07-29T14:16:42;22.90;99.90
2967;DHT22;1493;51.496;7.210;2023-07-29T14:19:09;22.80;1.00
2967;DHT22;1493;51.496;7.210;2023-07-29T14:21:35;22.70;1.00
2967;DHT22;1493;51.496;7.210;2023-07-29T14:24:04;22.40;1.00
2967;DHT22;1493;51.496;7.210;2023-07-29T14:26:31;21.90;67.20
2967;DHT22;1493;51.496;7.210;2023-07-29T14:28:58;21.50;99.90
2967;DHT22;1493;51.496;7.210;2023-07-29T14:31:25;21.20;99.90
2967;DHT22;1493;51.496;7.210;2023-07-29T14:33:52;21.00;99.90
2967;DHT22;1493;51.496;7.210;2023-07-29T14:36:19;20.80;99.90
2967;DHT22;1493;51.496;7.210;2023-07-29T14:38:45;20.60;99.90
2967;DHT22;1493;51.496;7.210;2023-07-29T14:41:14;20.30;99.90
2967;DHT22;1493;51.496;7.210;2023-07-29T14:43:40;20.10;99.90
2967;DHT22;1493;51.496;7.210;2023-07-29T14:46:07;20.00;99.90
2967;DHT22;1493;51.496;7.210;2023-07-29T14:48:34;19.90;99.90
2967;DHT22;1493;51.496;7.210;2023-07-29T14:51:01;20.00;99.90
2967;DHT22;1493;51.496;7.210;2023-07-29T14:53:28;19.90;99.90
2967;DHT22;1493;51.496;7.210;2023-07-29T14:55:54;20.20;99.90
2967;DHT22;1493;51.496;7.210;2023-07-29T14:58:23;20.80;99.90
2967;DHT22;1493;51.496;7.210;2023-07-29T15:00:51;21.20;99.90
2967;DHT22;1493;51.496;7.210;2023-07-29T15:03:18;21.60;99.90
2967;DHT22;1493;51.496;7.210;2023-07-29T15:05:44;22.00;99.90
2967;DHT22;1493;51.496;7.210;2023-07-29T15:08:11;22.20;99.90
2967;DHT22;1493;51.496;7.210;2023-07-29T15:10:38;22.40;99.90
2967;DHT22;1493;51.496;7.210;2023-07-29T15:13:06;22.60;99.90
2967;DHT22;1493;51.496;7.210;2023-07-29T15:15:34;22.50;99.90
2967;DHT22;1493;51.496;7.210;2023-07-29T15:18:00;22.30;99.90
2967;DHT22;1493;51.496;7.210;2023-07-29T15:20:27;22.00;99.90
2967;DHT22;1493;51.496;7.210;2023-07-29T15:22:54;21.70;99.90
2967;DHT22;1493;51.496;7.210;2023-07-29T15:25:21;21.60;99.90
2967;DHT22;1493;51.496;7.210;2023-07-29T15:27:48;21.50;99.90
2967;DHT22;1493;51.496;7.210;2023-07-29T15:30:15;21.30;99.90
2967;DHT22;1493;51.496;7.210;2023-07-29T15:32:43;21.10;99.90
2967;DHT22;1493;51.496;7.210;2023-07-29T15:35:10;21.00;99.90
2967;DHT22;1493;51.496;7.210;2023-07-29T15:37:37;21.00;99.90
2967;DHT22;1493;51.496;7.210;2023-07-29T15:40:05;20.90;99.90
2967;DHT22;1493;51.496;7.210;2023-07-29T15:42:33;21.00;99.90
2967;DHT22;1493;51.496;7.210;2023-07-29T15:45:00;21.10;99.90
2967;DHT22;1493;51.496;7.210;2023-07-29T15:47:26;21.30;99.90
2967;DHT22;1493;51.496;7.210;2023-07-29T15:49:55;21.70;99.90
2967;DHT22;1493;51.496;7.210;2023-07-29T15:52:21;21.90;99.90
2967;DHT22;1493;51.496;7.210;2023-07-29T15:54:49;22.10;99.90
2967;DHT22;1493;51.496;7.210;2023-07-29T15:57:17;22.10;99.90
2967;DHT22;1493;51.496;7.210;2023-07-29T15:59:44;22.10;99.90
2967;DHT22;1493;51.496;7.210;2023-07-29T16:02:11;22.00;99.90
2967;DHT22;1493;51.496;7.210;2023-07-29T16:04:38;22.00;99.90
2967;DHT22;1493;51.496;7.210;2023-07-29T16:07:07;22.10;99.90
2967;DHT22;1493;51.496;7.210;2023-07-29T16:09:34;22.10;99.90